sensor_id;sensor_type;location;lat;lon;timestamp;temperature;humidity
1650;DHT22;822;53.670;8.676;2023-05-07T00:00:09;9.90;95.20
1650;DHT22;822;53.670;8.676;2023-05-07T00:02:36;9.90;95.30
1650;DHT22;822;53.670;8.676;2023-05-07T00:05:04;9.90;95.20
1650;DHT22;822;53.670;8.676;2023-05-07T00:07:32;9.90;95.20
1650;DHT22;822;53.670;8.676;2023-05-07T00:09:59;9.90;95.30
1650;DHT22;822;53.670;8.676;2023-05-07T00:12:27;9.90;95.20
1650;DHT22;822;53.670;8.676;2023-05-07T00:14:57;9.90;95.10
1650;DHT22;822;53.670;8.676;2023-05-07T00:17:24;9.90;95.00
1650;DHT22;822;53.670;8.676;2023-05-07T00:19:51;9.90;95.30
1650;DHT22;822;53.670;8.676;2023-05-07T00:22:18;9.80;95.00
1650;DHT22;822;53.670;8.676;2023-05-07T00:24:45;9.90;95.00
1650;DHT22;822;53.670;8.676;2023-05-07T00:27:12;9.90;95.10
1650;DHT22;822;53.670;8.676;2023-05-07T00:29:41;9.90;95.00
1650;DHT22;822;53.670;8.676;2023-05-07T00:32:08;9.90;95.00
1650;DHT22;822;53.670;8.676;2023-05-07T00:34:35;9.80;95.00
1650;DHT22;822;53.670;8.676;2023-05-07T00:37:02;9.80;94.90
1650;DHT22;822;53.670;8.676;2023-05-07T00:39:30;9.80;94.90
1650;DHT22;822;53.670;8.676;2023-05-07T00:41:57;9.80;94.90
1650;DHT22;822;53.670;8.676;2023-05-07T00:44:24;9.80;94.90
1650;DHT22;822;53.670;8.676;2023-05-07T00:46:53;9.80;94.80
1650;DHT22;822;53.670;8.676;2023-05-07T00:49:21;9.80;94.90
1650;DHT22;822;53.670;8.676;2023-05-07T00:51:48;9.70;94.90
1650;DHT22;822;53.670;8.676;2023-05-07T00:54:16;9.70;94.90
1650;DHT22;822;53.670;8.676;2023-05-07T00:56:44;9.70;95.00
1650;DHT22;822;53.670;8.676;2023-05-07T00:59:11;9.70;95.10
1650;DHT22;822;53.670;8.676;2023-05-07T01:01:38;9.70;95.10
1650;DHT22;822;53.670;8.676;2023-05-07T01:04:07;9.70;95.10
1650;DHT22;822;53.670;8.676;2023-05-07T01:06:34;9.70;95.20
1650;DHT22;822;53.670;8.676;2023-05-07T01:09:01;9.70;95.20
1650;DHT22;822;53.670;8.676;2023-05-07T01:11:30;9.70;95.30
1650;DHT22;822;53.670;8.676;2023-05-07T01:13:58;9.70;95.30
1650;DHT22;822;53.670;8.676;2023-05-07T01:16:26;9.70;95.60
1650;DHT22;822;53.670;8.676;2023-05-07T01:18:53;9.70;95.40
1650;DHT22;822;53.670;8.676;2023-05-07T01:21:26;9.70;95.40
1650;DHT22;822;53.670;8.676;2023-05-07T01:23:55;9.60;95.30
1650;DHT22;822;53.670;8.676;2023-05-07T01:26:22;9.60;95.30
1650;DHT22;822;53.670;8.676;2023-05-07T01:28:50;9.60;95.30
1650;DHT22;822;53.670;8.676;2023-05-07T01:31:17;9.60;95.40
1650;DHT22;822;53.670;8.676;2023-05-07T01:33:46;9.60;95.30
1650;DHT22;822;53.670;8.676;2023-05-07T01:36:15;9.60;95.30
1650;DHT22;822;53.670;8.676;2023-05-07T01:38:44;9.60;95.30
1650;DHT22;822;53.670;8.676;2023-05-07T01:41:13;9.60;95.30
1650;DHT22;822;53.670;8.676;2023-05-07T01:43:41;9.60;95.30
1650;DHT22;822;53.670;8.676;2023-05-07T01:46:09;9.60;95.30
1650;DHT22;822;53.670;8.676;2023-05-07T01:48:38;9.60;95.30
1650;DHT22;822;53.670;8.676;2023-05-07T01:51:06;9.50;95.30
1650;DHT22;822;53.670;8.676;2023-05-07T01:53:36;9.50;95.40
1650;DHT22;822;53.670;8.676;2023-05-07T01:56:03;9.50;95.50
1650;DHT22;822;53.670;8.676;2023-05-07T01:58:32;9.50;95.50
1650;DHT22;822;53.670;8.676;2023-05-07T02:00:59;9.50;95.50
1650;DHT22;822;53.670;8.676;2023-05-07T02:03:26;9.50;95.50
1650;DHT22;822;53.670;8.676;2023-05-07T02:05:53;9.50;95.60
1650;DHT22;822;53.670;8.676;2023-05-07T02:08:20;9.50;95.60
1650;DHT22;822;53.670;8.676;2023-05-07T02:10:48;9.50;95.60
1650;DHT22;822;53.670;8.676;2023-05-07T02:13:15;9.50;95.60
1650;DHT22;822;53.670;8.676;2023-05-07T02:15:44;9.50;95.60
1650;DHT22;822;53.670;8.676;2023-05-07T02:18:16;9.50;95.70
1650;DHT22;822;53.670;8.676;2023-05-07T02:20:43;9.50;95.70
1650;DHT22;822;53.670;8.676;2023-05-07T02:23:10;9.50;95.80
1650;DHT22;822;53.670;8.676;2023-05-07T02:25:38;9.50;95.80
1650;DHT22;822;53.670;8.676;2023-05-07T02:28:05;9.50;95.80
1650;DHT22;822;53.670;8.676;2023-05-07T02:30:32;9.50;95.80
1650;DHT22;822;53.670;8.676;2023-05-07T02:33:01;9.50;95.80
1650;DHT22;822;53.670;8.676;2023-05-07T02:35:28;9.50;95.90
1650;DHT22;822;53.670;8.676;2023-05-07T02:37:55;9.50;95.90
1650;DHT22;822;53.670;8.676;2023-05-07T02:40:22;9.50;95.90
1650;DHT22;822;53.670;8.676;2023-05-07T02:42:50;9.50;95.90
1650;DHT22;822;53.670;8.676;2023-05-07T02:45:17;9.40;95.90
1650;DHT22;822;53.670;8.676;2023-05-07T02:47:44;9.40;95.90
1650;DHT22;822;53.670;8.676;2023-05-07T02:50:16;9.40;95.90
1650;DHT22;822;53.670;8.676;2023-05-07T02:52:43;9.40;95.90
1650;DHT22;822;53.670;8.676;2023-05-07T02:55:11;9.40;95.90
1650;DHT22;822;53.670;8.676;2023-05-07T02:57:38;9.40;95.80
1650;DHT22;822;53.670;8.676;2023-05-07T03:00:13;9.40;95.80
1650;DHT22;822;53.670;8.676;2023-05-07T03:02:40;9.30;95.70
1650;DHT22;822;53.670;8.676;2023-05-07T03:05:07;9.30;95.70
1650;DHT22;822;53.670;8.676;2023-05-07T03:07:39;9.30;95.80
1650;DHT22;822;53.670;8.676;2023-05-07T03:10:10;9.30;95.80
1650;DHT22;822;53.670;8.676;2023-05-07T03:12:38;9.30;95.70
1650;DHT22;822;53.670;8.676;2023-05-07T03:15:05;9.30;95.70
1650;DHT22;822;53.670;8.676;2023-05-07T03:17:35;9.30;95.70
1650;DHT22;822;53.670;8.676;2023-05-07T03:20:02;9.30;95.70
1650;DHT22;822;53.670;8.676;2023-05-07T03:22:29;9.30;95.70
1650;DHT22;822;53.670;8.676;2023-05-07T03:24:58;9.30;95.70
1650;DHT22;822;53.670;8.676;2023-05-07T03:27:25;9.20;95.60
1650;DHT22;822;53.670;8.676;2023-05-07T03:29:52;9.20;95.50
1650;DHT22;822;53.670;8.676;2023-05-07T03:32:19;9.20;95.50
1650;DHT22;822;53.670;8.676;2023-05-07T03:34:46;9.20;95.50
1650;DHT22;822;53.670;8.676;2023-05-07T03:37:13;9.20;95.50
1650;DHT22;822;53.670;8.676;2023-05-07T03:39:41;9.20;95.40
1650;DHT22;822;53.670;8.676;2023-05-07T03:42:09;9.20;95.40
1650;DHT22;822;53.670;8.676;2023-05-07T03:44:36;9.20;95.50
1650;DHT22;822;53.670;8.676;2023-05-07T03:47:04;9.20;95.50
1650;DHT22;822;53.670;8.676;2023-05-07T03:49:31;9.20;95.50
1650;DHT22;822;53.670;8.676;2023-05-07T03:51:58;9.20;95.50
1650;DHT22;822;53.670;8.676;2023-05-07T03:54:25;9.20;95.50
1650;DHT22;822;53.670;8.676;2023-05-07T03:56:53;9.20;95.60
1650;DHT22;822;53.670;8.676;2023-05-07T03:59:21;9.20;95.60
1650;DHT22;822;53.670;8.676;2023-05-07T04:01:49;9.20;95.60
1650;DHT22;822;53.670;8.676;2023-05-07T04:04:16;9.20;95.60
1650;DHT22;822;53.670;8.676;2023-05-07T04:06:43;9.20;95.60
1650;DHT22;822;53.670;8.676;2023-05-07T04:09:16;9.20;95.60
1650;DHT22;822;53.670;8.676;2023-05-07T04:11:43;9.20;95.60
1650;DHT22;822;53.670;8.676;2023-05-07T04:14:11;9.20;95.40
1650;DHT22;822;53.670;8.676;2023-05-07T04:16:40;9.20;95.40
1650;DHT22;822;53.670;8.676;2023-05-07T04:19:07;9.20;95.40
1650;DHT22;822;53.670;8.676;2023-05-07T04:21:35;9.30;95.50
1650;DHT22;822;53.670;8.676;2023-05-07T04:24:03;9.20;95.50
1650;DHT22;822;53.670;8.676;2023-05-07T04:26:33;9.20;95.50
1650;DHT22;822;53.670;8.676;2023-05-07T04:29:00;9.20;95.50
1650;DHT22;822;53.670;8.676;2023-05-07T04:31:27;9.20;95.50
1650;DHT22;822;53.670;8.676;2023-05-07T04:33:57;9.20;95.50
1650;DHT22;822;53.670;8.676;2023-05-07T04:36:24;9.20;95.40
1650;DHT22;822;53.670;8.676;2023-05-07T04:38:53;9.20;95.40
1650;DHT22;822;53.670;8.676;2023-05-07T04:41:20;9.30;95.40
1650;DHT22;822;53.670;8.676;2023-05-07T04:43:47;9.30;95.50
1650;DHT22;822;53.670;8.676;2023-05-07T04:46:14;9.30;95.30
1650;DHT22;822;53.670;8.676;2023-05-07T04:48:41;9.30;95.30
1650;DHT22;822;53.670;8.676;2023-05-07T04:51:10;9.30;95.20
1650;DHT22;822;53.670;8.676;2023-05-07T04:53:37;9.30;95.10
1650;DHT22;822;53.670;8.676;2023-05-07T04:56:04;9.30;95.00
1650;DHT22;822;53.670;8.676;2023-05-07T04:58:32;9.30;94.80
1650;DHT22;822;53.670;8.676;2023-05-07T05:00:59;9.30;94.90
1650;DHT22;822;53.670;8.676;2023-05-07T05:03:27;9.30;94.80
1650;DHT22;822;53.670;8.676;2023-05-07T05:05:57;9.30;94.70
1650;DHT22;822;53.670;8.676;2023-05-07T05:08:26;9.30;94.50
1650;DHT22;822;53.670;8.676;2023-05-07T05:10:53;9.30;94.40
1650;DHT22;822;53.670;8.676;2023-05-07T05:13:20;9.30;94.30
1650;DHT22;822;53.670;8.676;2023-05-07T05:15:47;9.30;94.30
1650;DHT22;822;53.670;8.676;2023-05-07T05:18:15;9.30;94.30
1650;DHT22;822;53.670;8.676;2023-05-07T05:20:42;9.40;94.40
1650;DHT22;822;53.670;8.676;2023-05-07T05:23:09;9.40;94.40
1650;DHT22;822;53.670;8.676;2023-05-07T05:25:37;9.40;94.30
1650;DHT22;822;53.670;8.676;2023-05-07T05:28:06;9.40;94.30
1650;DHT22;822;53.670;8.676;2023-05-07T05:30:33;9.40;94.20
1650;DHT22;822;53.670;8.676;2023-05-07T05:33:01;9.40;94.20
1650;DHT22;822;53.670;8.676;2023-05-07T05:35:29;9.40;94.10
1650;DHT22;822;53.670;8.676;2023-05-07T05:37:56;9.40;94.20
1650;DHT22;822;53.670;8.676;2023-05-07T05:40:23;9.40;94.10
1650;DHT22;822;53.670;8.676;2023-05-07T05:42:52;9.50;94.20
1650;DHT22;822;53.670;8.676;2023-05-07T05:45:20;9.40;94.20
1650;DHT22;822;53.670;8.676;2023-05-07T05:47:47;9.50;94.30
1650;DHT22;822;53.670;8.676;2023-05-07T05:50:14;9.50;94.20
1650;DHT22;822;53.670;8.676;2023-05-07T05:52:41;9.50;94.30
1650;DHT22;822;53.670;8.676;2023-05-07T05:55:09;9.60;94.40
1650;DHT22;822;53.670;8.676;2023-05-07T05:57:38;9.60;94.40
1650;DHT22;822;53.670;8.676;2023-05-07T06:00:08;9.60;94.30
1650;DHT22;822;53.670;8.676;2023-05-07T06:02:37;9.70;94.20
1650;DHT22;822;53.670;8.676;2023-05-07T06:05:05;9.70;94.10
1650;DHT22;822;53.670;8.676;2023-05-07T06:07:32;9.70;94.00
1650;DHT22;822;53.670;8.676;2023-05-07T06:10:00;9.80;94.00
1650;DHT22;822;53.670;8.676;2023-05-07T06:12:27;9.80;93.70
1650;DHT22;822;53.670;8.676;2023-05-07T06:14:57;9.80;93.80
1650;DHT22;822;53.670;8.676;2023-05-07T06:17:25;9.80;93.20
1650;DHT22;822;53.670;8.676;2023-05-07T06:19:52;9.80;93.20
1650;DHT22;822;53.670;8.676;2023-05-07T06:22:19;9.80;93.30
1650;DHT22;822;53.670;8.676;2023-05-07T06:24:47;9.80;93.30
1650;DHT22;822;53.670;8.676;2023-05-07T06:27:14;9.70;93.30
1650;DHT22;822;53.670;8.676;2023-05-07T06:29:42;9.80;93.20
1650;DHT22;822;53.670;8.676;2023-05-07T06:32:13;9.80;93.20
1650;DHT22;822;53.670;8.676;2023-05-07T06:34:41;9.80;93.20
1650;DHT22;822;53.670;8.676;2023-05-07T06:37:08;9.80;93.00
1650;DHT22;822;53.670;8.676;2023-05-07T06:39:36;9.80;92.90
1650;DHT22;822;53.670;8.676;2023-05-07T06:42:03;9.80;92.90
1650;DHT22;822;53.670;8.676;2023-05-07T06:44:30;9.80;92.80
1650;DHT22;822;53.670;8.676;2023-05-07T06:46:57;9.80;92.80
1650;DHT22;822;53.670;8.676;2023-05-07T06:49:25;9.80;93.00
1650;DHT22;822;53.670;8.676;2023-05-07T06:51:54;9.80;93.00
1650;DHT22;822;53.670;8.676;2023-05-07T06:54:22;9.80;93.10
1650;DHT22;822;53.670;8.676;2023-05-07T06:56:49;9.80;92.90
1650;DHT22;822;53.670;8.676;2023-05-07T06:59:16;9.90;92.90
1650;DHT22;822;53.670;8.676;2023-05-07T07:01:44;9.90;92.90
1650;DHT22;822;53.670;8.676;2023-05-07T07:04:12;9.90;92.90
1650;DHT22;822;53.670;8.676;2023-05-07T07:06:39;9.90;92.90
1650;DHT22;822;53.670;8.676;2023-05-07T07:09:07;9.90;93.00
1650;DHT22;822;53.670;8.676;2023-05-07T07:11:35;9.90;92.90
1650;DHT22;822;53.670;8.676;2023-05-07T07:14:05;9.90;92.80
1650;DHT22;822;53.670;8.676;2023-05-07T07:16:32;10.00;92.80
1650;DHT22;822;53.670;8.676;2023-05-07T07:19:02;10.00;92.80
1650;DHT22;822;53.670;8.676;2023-05-07T07:21:30;10.00;92.80
1650;DHT22;822;53.670;8.676;2023-05-07T07:23:57;10.00;92.90
1650;DHT22;822;53.670;8.676;2023-05-07T07:26:26;10.00;92.90
1650;DHT22;822;53.670;8.676;2023-05-07T07:28:53;10.10;93.00
1650;DHT22;822;53.670;8.676;2023-05-07T07:31:20;10.10;92.90
1650;DHT22;822;53.670;8.676;2023-05-07T07:33:47;10.20;93.10
1650;DHT22;822;53.670;8.676;2023-05-07T07:36:16;10.30;93.00
1650;DHT22;822;53.670;8.676;2023-05-07T07:38:43;10.40;92.60
1650;DHT22;822;53.670;8.676;2023-05-07T07:41:13;10.40;92.70
1650;DHT22;822;53.670;8.676;2023-05-07T07:43:41;10.50;92.70
1650;DHT22;822;53.670;8.676;2023-05-07T07:46:09;10.60;92.70
1650;DHT22;822;53.670;8.676;2023-05-07T07:48:36;10.70;92.60
1650;DHT22;822;53.670;8.676;2023-05-07T07:51:03;10.70;91.90
1650;DHT22;822;53.670;8.676;2023-05-07T07:53:31;10.80;91.80
1650;DHT22;822;53.670;8.676;2023-05-07T07:55:59;10.80;91.70
1650;DHT22;822;53.670;8.676;2023-05-07T07:58:26;10.80;91.40
1650;DHT22;822;53.670;8.676;2023-05-07T08:00:55;10.90;91.50
1650;DHT22;822;53.670;8.676;2023-05-07T08:03:24;10.90;91.20
1650;DHT22;822;53.670;8.676;2023-05-07T08:05:51;10.90;91.20
1650;DHT22;822;53.670;8.676;2023-05-07T08:08:18;11.00;91.40
1650;DHT22;822;53.670;8.676;2023-05-07T08:10:46;11.00;91.40
1650;DHT22;822;53.670;8.676;2023-05-07T08:13:15;11.10;91.40
1650;DHT22;822;53.670;8.676;2023-05-07T08:15:42;11.10;90.90
1650;DHT22;822;53.670;8.676;2023-05-07T08:18:11;11.20;91.00
1650;DHT22;822;53.670;8.676;2023-05-07T08:20:38;11.20;91.00
1650;DHT22;822;53.670;8.676;2023-05-07T08:23:07;11.30;91.00
1650;DHT22;822;53.670;8.676;2023-05-07T08:25:34;11.30;91.00
1650;DHT22;822;53.670;8.676;2023-05-07T08:28:01;11.40;90.90
1650;DHT22;822;53.670;8.676;2023-05-07T08:30:28;11.40;90.70
1650;DHT22;822;53.670;8.676;2023-05-07T08:32:56;11.40;90.50
1650;DHT22;822;53.670;8.676;2023-05-07T08:35:24;11.50;90.60
1650;DHT22;822;53.670;8.676;2023-05-07T08:37:53;11.60;90.60
1650;DHT22;822;53.670;8.676;2023-05-07T08:40:28;11.70;90.30
1650;DHT22;822;53.670;8.676;2023-05-07T08:42:56;11.70;90.40
1650;DHT22;822;53.670;8.676;2023-05-07T08:45:24;11.80;90.20
1650;DHT22;822;53.670;8.676;2023-05-07T08:47:58;11.90;90.30
1650;DHT22;822;53.670;8.676;2023-05-07T08:50:27;12.00;90.10
1650;DHT22;822;53.670;8.676;2023-05-07T08:52:55;12.00;89.80
1650;DHT22;822;53.670;8.676;2023-05-07T08:55:28;12.10;89.10
1650;DHT22;822;53.670;8.676;2023-05-07T08:57:56;12.10;88.90
1650;DHT22;822;53.670;8.676;2023-05-07T09:00:23;12.10;88.90
1650;DHT22;822;53.670;8.676;2023-05-07T09:02:50;12.10;88.30
1650;DHT22;822;53.670;8.676;2023-05-07T09:05:18;12.20;87.90
1650;DHT22;822;53.670;8.676;2023-05-07T09:07:47;12.20;87.50
1650;DHT22;822;53.670;8.676;2023-05-07T09:10:14;12.20;87.90
1650;DHT22;822;53.670;8.676;2023-05-07T09:12:42;12.20;88.10
1650;DHT22;822;53.670;8.676;2023-05-07T09:15:09;12.20;88.60
1650;DHT22;822;53.670;8.676;2023-05-07T09:17:37;12.30;89.10
1650;DHT22;822;53.670;8.676;2023-05-07T09:20:08;12.40;89.40
1650;DHT22;822;53.670;8.676;2023-05-07T09:22:37;12.40;87.70
1650;DHT22;822;53.670;8.676;2023-05-07T09:25:06;12.40;86.60
1650;DHT22;822;53.670;8.676;2023-05-07T09:27:35;12.50;87.60
1650;DHT22;822;53.670;8.676;2023-05-07T09:30:04;12.50;87.20
1650;DHT22;822;53.670;8.676;2023-05-07T09:32:35;12.60;86.70
1650;DHT22;822;53.670;8.676;2023-05-07T09:35:04;12.60;86.30
1650;DHT22;822;53.670;8.676;2023-05-07T09:37:32;12.70;87.00
1650;DHT22;822;53.670;8.676;2023-05-07T09:40:00;12.70;86.50
1650;DHT22;822;53.670;8.676;2023-05-07T09:42:29;12.80;86.20
1650;DHT22;822;53.670;8.676;2023-05-07T09:44:56;12.80;85.50
1650;DHT22;822;53.670;8.676;2023-05-07T09:47:32;12.80;86.00
1650;DHT22;822;53.670;8.676;2023-05-07T09:50:23;12.90;85.70
1650;DHT22;822;53.670;8.676;2023-05-07T09:53:03;12.90;84.30
1650;DHT22;822;53.670;8.676;2023-05-07T09:55:31;12.90;84.70
1650;DHT22;822;53.670;8.676;2023-05-07T09:57:59;13.00;85.40
1650;DHT22;822;53.670;8.676;2023-05-07T10:00:29;13.00;84.10
1650;DHT22;822;53.670;8.676;2023-05-07T10:02:57;13.00;84.10
1650;DHT22;822;53.670;8.676;2023-05-07T10:05:25;13.00;84.70
1650;DHT22;822;53.670;8.676;2023-05-07T10:07:53;13.10;84.40
1650;DHT22;822;53.670;8.676;2023-05-07T10:10:21;13.20;84.70
1650;DHT22;822;53.670;8.676;2023-05-07T10:12:49;13.30;85.00
1650;DHT22;822;53.670;8.676;2023-05-07T10:15:18;13.40;85.50
1650;DHT22;822;53.670;8.676;2023-05-07T10:17:46;13.60;84.40
1650;DHT22;822;53.670;8.676;2023-05-07T10:20:15;13.70;83.90
1650;DHT22;822;53.670;8.676;2023-05-07T10:22:45;13.80;83.90
1650;DHT22;822;53.670;8.676;2023-05-07T10:25:17;13.90;82.20
1650;DHT22;822;53.670;8.676;2023-05-07T10:27:46;14.00;82.10
1650;DHT22;822;53.670;8.676;2023-05-07T10:30:28;14.00;82.10
1650;DHT22;822;53.670;8.676;2023-05-07T10:33:01;14.10;81.40
1650;DHT22;822;53.670;8.676;2023-05-07T10:35:38;14.20;80.30
1650;DHT22;822;53.670;8.676;2023-05-07T10:38:07;14.20;79.90
1650;DHT22;822;53.670;8.676;2023-05-07T10:40:34;14.30;80.90
1650;DHT22;822;53.670;8.676;2023-05-07T10:43:03;14.40;79.40
1650;DHT22;822;53.670;8.676;2023-05-07T10:45:32;14.50;80.20
1650;DHT22;822;53.670;8.676;2023-05-07T10:48:11;14.50;79.80
1650;DHT22;822;53.670;8.676;2023-05-07T10:50:39;14.60;80.00
1650;DHT22;822;53.670;8.676;2023-05-07T10:53:23;14.60;78.20
1650;DHT22;822;53.670;8.676;2023-05-07T10:56:25;14.60;76.90
1650;DHT22;822;53.670;8.676;2023-05-07T10:58:53;14.60;77.50
1650;DHT22;822;53.670;8.676;2023-05-07T11:01:51;14.60;77.50
1650;DHT22;822;53.670;8.676;2023-05-07T11:04:19;14.70;78.10
1650;DHT22;822;53.670;8.676;2023-05-07T11:10:04;14.80;78.40
1650;DHT22;822;53.670;8.676;2023-05-07T11:12:48;14.80;78.10
1650;DHT22;822;53.670;8.676;2023-05-07T11:15:37;14.90;76.90
1650;DHT22;822;53.670;8.676;2023-05-07T11:18:06;14.80;75.60
1650;DHT22;822;53.670;8.676;2023-05-07T11:20:47;14.90;78.10
1650;DHT22;822;53.670;8.676;2023-05-07T11:26:46;14.90;77.60
1650;DHT22;822;53.670;8.676;2023-05-07T11:29:15;15.00;77.00
1650;DHT22;822;53.670;8.676;2023-05-07T11:31:42;15.10;77.20
1650;DHT22;822;53.670;8.676;2023-05-07T11:34:11;15.20;77.90
1650;DHT22;822;53.670;8.676;2023-05-07T11:36:42;15.30;76.70
1650;DHT22;822;53.670;8.676;2023-05-07T11:39:30;15.30;76.00
1650;DHT22;822;53.670;8.676;2023-05-07T11:41:59;15.30;75.60
1650;DHT22;822;53.670;8.676;2023-05-07T11:44:43;15.30;75.80
1650;DHT22;822;53.670;8.676;2023-05-07T11:47:12;15.30;75.40
1650;DHT22;822;53.670;8.676;2023-05-07T11:49:48;15.30;74.40
1650;DHT22;822;53.670;8.676;2023-05-07T11:52:20;15.30;76.00
1650;DHT22;822;53.670;8.676;2023-05-07T11:54:51;15.30;75.80
1650;DHT22;822;53.670;8.676;2023-05-07T11:57:19;15.40;75.70
1650;DHT22;822;53.670;8.676;2023-05-07T11:59:53;15.40;76.10
1650;DHT22;822;53.670;8.676;2023-05-07T12:02:20;15.40;73.80
1650;DHT22;822;53.670;8.676;2023-05-07T12:04:48;15.40;74.90
1650;DHT22;822;53.670;8.676;2023-05-07T12:07:16;15.40;74.90
1650;DHT22;822;53.670;8.676;2023-05-07T12:09:44;15.50;74.20
1650;DHT22;822;53.670;8.676;2023-05-07T12:12:13;15.50;74.50
1650;DHT22;822;53.670;8.676;2023-05-07T12:14:41;15.50;74.20
1650;DHT22;822;53.670;8.676;2023-05-07T12:17:10;15.40;72.90
1650;DHT22;822;53.670;8.676;2023-05-07T12:19:38;15.30;72.40
1650;DHT22;822;53.670;8.676;2023-05-07T12:22:08;15.20;73.90
1650;DHT22;822;53.670;8.676;2023-05-07T12:24:45;15.20;75.00
1650;DHT22;822;53.670;8.676;2023-05-07T12:27:13;15.20;75.20
1650;DHT22;822;53.670;8.676;2023-05-07T12:29:44;15.20;74.90
1650;DHT22;822;53.670;8.676;2023-05-07T12:32:13;15.20;74.50
1650;DHT22;822;53.670;8.676;2023-05-07T12:34:41;15.20;74.80
1650;DHT22;822;53.670;8.676;2023-05-07T12:37:10;15.20;74.80
1650;DHT22;822;53.670;8.676;2023-05-07T12:39:42;15.10;74.40
1650;DHT22;822;53.670;8.676;2023-05-07T12:42:15;15.20;73.90
1650;DHT22;822;53.670;8.676;2023-05-07T12:44:45;15.10;75.00
1650;DHT22;822;53.670;8.676;2023-05-07T12:47:12;15.20;76.00
1650;DHT22;822;53.670;8.676;2023-05-07T12:49:41;15.30;75.50
1650;DHT22;822;53.670;8.676;2023-05-07T12:52:11;15.30;75.70
1650;DHT22;822;53.670;8.676;2023-05-07T12:54:38;15.40;76.00
1650;DHT22;822;53.670;8.676;2023-05-07T12:57:07;15.50;75.60
1650;DHT22;822;53.670;8.676;2023-05-07T12:59:36;15.50;75.00
1650;DHT22;822;53.670;8.676;2023-05-07T13:02:03;15.50;74.50
1650;DHT22;822;53.670;8.676;2023-05-07T13:04:31;15.60;74.10
1650;DHT22;822;53.670;8.676;2023-05-07T13:06:59;15.60;72.80
1650;DHT22;822;53.670;8.676;2023-05-07T13:09:28;15.60;73.00
1650;DHT22;822;53.670;8.676;2023-05-07T13:11:55;15.60;73.90
1650;DHT22;822;53.670;8.676;2023-05-07T13:14:25;15.50;72.40
1650;DHT22;822;53.670;8.676;2023-05-07T13:16:52;15.40;72.50
1650;DHT22;822;53.670;8.676;2023-05-07T13:19:19;15.40;73.70
1650;DHT22;822;53.670;8.676;2023-05-07T13:21:47;15.40;74.10
1650;DHT22;822;53.670;8.676;2023-05-07T13:24:15;15.40;74.70
1650;DHT22;822;53.670;8.676;2023-05-07T13:26:45;15.40;74.40
1650;DHT22;822;53.670;8.676;2023-05-07T13:29:12;15.50;74.00
1650;DHT22;822;53.670;8.676;2023-05-07T13:31:39;15.50;72.00
1650;DHT22;822;53.670;8.676;2023-05-07T13:34:09;15.50;73.10
1650;DHT22;822;53.670;8.676;2023-05-07T13:36:36;15.50;74.20
1650;DHT22;822;53.670;8.676;2023-05-07T13:39:05;15.50;73.50
1650;DHT22;822;53.670;8.676;2023-05-07T13:41:34;15.50;73.60
1650;DHT22;822;53.670;8.676;2023-05-07T13:44:02;15.50;73.70
1650;DHT22;822;53.670;8.676;2023-05-07T13:46:29;15.50;73.60
1650;DHT22;822;53.670;8.676;2023-05-07T13:48:57;15.60;74.00
1650;DHT22;822;53.670;8.676;2023-05-07T13:51:24;15.60;74.30
1650;DHT22;822;53.670;8.676;2023-05-07T13:53:51;15.70;74.60
1650;DHT22;822;53.670;8.676;2023-05-07T13:56:19;15.70;73.80
1650;DHT22;822;53.670;8.676;2023-05-07T13:58:47;15.80;73.50
1650;DHT22;822;53.670;8.676;2023-05-07T14:01:15;15.80;73.20
1650;DHT22;822;53.670;8.676;2023-05-07T14:03:42;15.80;71.80
1650;DHT22;822;53.670;8.676;2023-05-07T14:06:09;15.70;72.40
1650;DHT22;822;53.670;8.676;2023-05-07T14:08:36;15.70;73.40
1650;DHT22;822;53.670;8.676;2023-05-07T14:11:04;15.70;73.70
1650;DHT22;822;53.670;8.676;2023-05-07T14:13:31;15.70;73.50
1650;DHT22;822;53.670;8.676;2023-05-07T14:16:00;15.70;74.30
1650;DHT22;822;53.670;8.676;2023-05-07T14:18:28;15.70;74.10
1650;DHT22;822;53.670;8.676;2023-05-07T14:20:55;15.80;74.10
1650;DHT22;822;53.670;8.676;2023-05-07T14:23:22;15.80;73.20
1650;DHT22;822;53.670;8.676;2023-05-07T14:25:52;15.80;73.50
1650;DHT22;822;53.670;8.676;2023-05-07T14:28:19;15.80;73.20
1650;DHT22;822;53.670;8.676;2023-05-07T14:30:47;15.80;73.30
1650;DHT22;822;53.670;8.676;2023-05-07T14:33:14;15.80;73.30
1650;DHT22;822;53.670;8.676;2023-05-07T14:35:42;15.90;73.20
1650;DHT22;822;53.670;8.676;2023-05-07T14:38:13;15.90;73.00
1650;DHT22;822;53.670;8.676;2023-05-07T14:40:40;15.90;73.30
1650;DHT22;822;53.670;8.676;2023-05-07T14:43:07;15.90;72.10
1650;DHT22;822;53.670;8.676;2023-05-07T14:45:35;15.90;71.70
1650;DHT22;822;53.670;8.676;2023-05-07T14:48:02;15.90;71.80
1650;DHT22;822;53.670;8.676;2023-05-07T14:50:29;16.00;72.60
1650;DHT22;822;53.670;8.676;2023-05-07T14:52:58;16.00;72.80
1650;DHT22;822;53.670;8.676;2023-05-07T14:55:25;16.00;73.10
1650;DHT22;822;53.670;8.676;2023-05-07T14:57:52;16.10;72.60
1650;DHT22;822;53.670;8.676;2023-05-07T15:00:19;16.10;73.70
1650;DHT22;822;53.670;8.676;2023-05-07T15:02:46;16.20;73.20
1650;DHT22;822;53.670;8.676;2023-05-07T15:05:14;16.20;72.80
1650;DHT22;822;53.670;8.676;2023-05-07T15:07:41;16.20;71.70
1650;DHT22;822;53.670;8.676;2023-05-07T15:10:10;16.20;72.20
1650;DHT22;822;53.670;8.676;2023-05-07T15:12:37;16.30;72.30
1650;DHT22;822;53.670;8.676;2023-05-07T15:15:05;16.30;71.40
1650;DHT22;822;53.670;8.676;2023-05-07T15:17:33;16.40;71.80
1650;DHT22;822;53.670;8.676;2023-05-07T15:20:00;16.50;71.80
1650;DHT22;822;53.670;8.676;2023-05-07T15:22:30;16.50;71.40
1650;DHT22;822;53.670;8.676;2023-05-07T15:24:57;16.60;70.80
1650;DHT22;822;53.670;8.676;2023-05-07T15:27:26;16.50;69.50
1650;DHT22;822;53.670;8.676;2023-05-07T15:29:53;16.40;70.90
1650;DHT22;822;53.670;8.676;2023-05-07T15:32:20;16.40;70.60
1650;DHT22;822;53.670;8.676;2023-05-07T15:34:47;16.40;70.80
1650;DHT22;822;53.670;8.676;2023-05-07T15:37:14;16.40;70.30
1650;DHT22;822;53.670;8.676;2023-05-07T15:39:41;16.30;69.60
1650;DHT22;822;53.670;8.676;2023-05-07T15:42:08;16.30;70.50
1650;DHT22;822;53.670;8.676;2023-05-07T15:44:37;16.20;69.90
1650;DHT22;822;53.670;8.676;2023-05-07T15:47:08;16.20;69.80
1650;DHT22;822;53.670;8.676;2023-05-07T15:49:35;16.10;69.90
1650;DHT22;822;53.670;8.676;2023-05-07T15:52:08;16.10;70.30
1650;DHT22;822;53.670;8.676;2023-05-07T15:54:39;16.00;70.30
1650;DHT22;822;53.670;8.676;2023-05-07T15:57:06;16.00;71.40
1650;DHT22;822;53.670;8.676;2023-05-07T15:59:34;16.00;71.20
1650;DHT22;822;53.670;8.676;2023-05-07T16:02:03;16.00;70.90
1650;DHT22;822;53.670;8.676;2023-05-07T16:04:31;16.00;71.70
1650;DHT22;822;53.670;8.676;2023-05-07T16:06:58;15.90;70.00
1650;DHT22;822;53.670;8.676;2023-05-07T16:09:25;15.90;71.20
1650;DHT22;822;53.670;8.676;2023-05-07T16:11:54;16.00;71.50
1650;DHT22;822;53.670;8.676;2023-05-07T16:14:21;15.90;71.40
1650;DHT22;822;53.670;8.676;2023-05-07T16:16:49;16.00;72.00
1650;DHT22;822;53.670;8.676;2023-05-07T16:19:17;15.90;71.20
1650;DHT22;822;53.670;8.676;2023-05-07T16:21:44;15.90;71.30
1650;DHT22;822;53.670;8.676;2023-05-07T16:24:11;15.90;70.00
1650;DHT22;822;53.670;8.676;2023-05-07T16:26:39;15.90;70.70
1650;DHT22;822;53.670;8.676;2023-05-07T16:29:06;15.90;71.40
1650;DHT22;822;53.670;8.676;2023-05-07T16:31:33;15.90;71.80
1650;DHT22;822;53.670;8.676;2023-05-07T16:34:01;15.80;71.90
1650;DHT22;822;53.670;8.676;2023-05-07T16:36:29;15.90;71.30
1650;DHT22;822;53.670;8.676;2023-05-07T16:38:57;15.80;71.50